createdAt,value
2023-04-15T00:03:42.696Z,7.50
2023-04-15T00:07:45.963Z,7.47
2023-04-15T00:11:47.400Z,7.83
2023-04-15T00:15:48.702Z,7.90
2023-04-15T00:19:49.974Z,8.57
2023-04-15T00:23:53.368Z,8.63
2023-04-15T00:27:54.650Z,7.77
2023-04-15T00:31:59.655Z,8.50
2023-04-15T00:36:01.736Z,7.50
2023-04-15T00:40:06.486Z,7.20
2023-04-15T00:44:08.803Z,7.20
2023-04-15T00:48:11.501Z,7.27
2023-04-15T00:52:13.616Z,6.47
2023-04-15T00:56:16.250Z,6.77
2023-04-15T01:00:19.757Z,6.50
2023-04-15T01:04:21.467Z,6.33
2023-04-15T01:08:25.501Z,6.77
2023-04-15T01:12:28.268Z,6.77
2023-04-15T01:16:30.231Z,6.80
2023-04-15T01:20:31.595Z,6.50
2023-04-15T01:24:33.622Z,7.07
2023-04-15T01:28:35.892Z,7.73
2023-04-15T01:32:37.823Z,6.90
2023-04-15T01:36:39.124Z,6.77
2023-04-15T01:40:40.386Z,6.60
2023-04-15T01:44:41.645Z,8.00
2023-04-15T01:48:43.000Z,7.07
2023-04-15T01:52:44.304Z,7.80
2023-04-15T01:56:45.564Z,6.37
2023-04-15T02:00:47.469Z,7.13
2023-04-15T02:04:48.707Z,8.10
2023-04-15T02:08:50.097Z,7.90
2023-04-15T02:12:51.467Z,7.20
2023-04-15T02:16:52.874Z,8.53
2023-04-15T02:20:56.103Z,7.53
2023-04-15T02:24:57.565Z,7.03
2023-04-15T02:28:59.469Z,7.20
2023-04-15T02:33:01.367Z,7.20
2023-04-15T02:37:03.252Z,7.40
2023-04-15T02:41:04.794Z,8.60
2023-04-15T02:45:07.454Z,8.50
2023-04-15T02:49:08.723Z,7.13
2023-04-15T02:53:10.001Z,8.70
2023-04-15T02:57:12.412Z,8.00
2023-04-15T03:01:14.024Z,7.93
2023-04-15T03:05:15.760Z,8.10
2023-04-15T03:09:17.061Z,7.33
2023-04-15T03:13:18.770Z,8.40
2023-04-15T03:17:20.462Z,7.90
2023-04-15T03:21:23.399Z,7.80
2023-04-15T03:25:24.657Z,7.87
2023-04-15T03:29:26.103Z,8.27
2023-04-15T03:33:28.663Z,8.60
2023-04-15T03:37:30.043Z,7.53
2023-04-15T03:41:32.405Z,7.87
2023-04-15T03:45:33.786Z,7.67
2023-04-15T03:49:36.198Z,8.07
2023-04-15T03:53:37.518Z,8.30
2023-04-15T03:57:39.160Z,7.80
2023-04-15T04:01:40.686Z,8.47
2023-04-15T04:05:43.537Z,8.13
2023-04-15T04:09:47.016Z,8.90
2023-04-15T04:13:48.353Z,7.70
2023-04-15T04:17:49.687Z,7.90
2023-04-15T04:21:51.452Z,7.53
2023-04-15T04:25:53.310Z,8.50
2023-04-15T04:29:54.992Z,8.07
2023-04-15T04:33:56.378Z,9.73
2023-04-15T04:37:57.773Z,8.73
2023-04-15T04:41:59.045Z,8.27
2023-04-15T04:46:00.914Z,8.00
2023-04-15T04:50:03.010Z,8.50
2023-04-15T04:54:04.420Z,8.50
2023-04-15T04:58:06.403Z,10.03
2023-04-15T05:02:07.776Z,10.70
2023-04-15T05:06:10.024Z,11.57
2023-04-15T05:10:11.441Z,9.60
2023-04-15T05:14:12.787Z,8.33
2023-04-15T05:18:14.027Z,9.00
2023-04-15T05:22:15.714Z,9.40
2023-04-15T05:26:17.274Z,8.97
2023-04-15T05:30:18.606Z,9.27
2023-04-15T05:34:19.912Z,8.73
2023-04-15T05:38:21.380Z,8.43
2023-04-15T05:42:22.691Z,8.17
2023-04-15T05:46:24.113Z,7.43
2023-04-15T05:50:25.654Z,12.10
2023-04-15T05:54:27.469Z,12.13
2023-04-15T05:58:28.830Z,13.50
2023-04-15T06:02:31.018Z,12.70
2023-04-15T06:06:32.901Z,13.03
2023-04-15T06:10:36.113Z,10.23
2023-04-15T06:14:38.777Z,9.17
2023-04-15T06:18:40.146Z,8.27
2023-04-15T06:22:41.591Z,8.80
2023-04-15T06:26:42.877Z,7.87
2023-04-15T06:30:44.214Z,9.03
2023-04-15T06:34:45.474Z,10.10
2023-04-15T06:38:46.954Z,9.50
2023-04-15T06:42:48.376Z,8.20
2023-04-15T06:46:49.675Z,10.40
2023-04-15T06:50:51.932Z,9.20
2023-04-15T06:54:53.269Z,9.30
2023-04-15T06:58:54.558Z,9.00
2023-04-15T07:02:56.038Z,8.87
2023-04-15T07:06:57.349Z,8.80
2023-04-15T07:11:00.179Z,9.50
2023-04-15T07:15:01.694Z,9.53
2023-04-15T07:19:03.758Z,9.37
2023-04-15T07:23:05.649Z,9.30
2023-04-15T07:27:06.955Z,9.03
2023-04-15T07:31:08.513Z,8.87
2023-04-15T07:35:10.369Z,8.87
2023-04-15T07:39:11.848Z,9.00
2023-04-15T07:43:13.228Z,9.17
2023-04-15T07:47:14.602Z,9.40
2023-04-15T07:51:17.233Z,9.80
2023-04-15T07:55:19.552Z,10.73
2023-04-15T07:59:20.940Z,11.23
2023-04-15T08:03:28.407Z,11.67
2023-04-15T08:07:30.666Z,11.17
2023-04-15T08:11:32.090Z,10.57
2023-04-15T08:15:33.250Z,10.60
2023-04-15T08:19:35.032Z,9.13
2023-04-15T08:23:37.131Z,8.30
2023-04-15T08:27:38.295Z,8.57
2023-04-15T08:31:39.539Z,8.37
2023-04-15T08:35:40.952Z,8.47
2023-04-15T08:39:43.421Z,7.23
2023-04-15T08:43:48.483Z,7.30
2023-04-15T08:47:53.471Z,5.83
2023-04-15T08:51:56.994Z,5.20
2023-04-15T08:56:01.104Z,4.70
2023-04-15T09:00:04.782Z,5.30
2023-04-15T09:04:07.466Z,4.07
2023-04-15T09:08:09.000Z,4.10
2023-04-15T09:12:11.546Z,3.60
2023-04-15T09:16:14.108Z,3.80
2023-04-15T09:20:16.441Z,3.03
2023-04-15T09:24:17.979Z,2.70
2023-04-15T09:28:25.427Z,3.50
2023-04-15T09:32:26.626Z,4.57
2023-04-15T09:36:30.324Z,3.20
2023-04-15T09:40:41.715Z,3.20
2023-04-15T09:44:43.304Z,3.30
2023-04-15T09:48:45.804Z,3.70
2023-04-15T09:52:47.807Z,3.23
2023-04-15T09:56:50.077Z,2.90
2023-04-15T10:00:52.700Z,3.70
2023-04-15T10:04:54.042Z,4.10
2023-04-15T10:08:57.202Z,4.17
2023-04-15T10:12:59.036Z,3.17
2023-04-15T10:17:03.012Z,3.70
2023-04-15T10:21:05.407Z,2.90
2023-04-15T10:25:07.101Z,3.00
2023-04-15T10:29:10.045Z,2.93
2023-04-15T10:33:12.260Z,2.70
2023-04-15T10:37:17.221Z,2.57
2023-04-15T10:41:21.954Z,2.50
2023-04-15T10:45:26.718Z,2.50
2023-04-15T10:49:28.110Z,3.20
2023-04-15T10:53:30.390Z,3.10
2023-04-15T10:57:39.988Z,2.90
2023-04-15T11:01:55.770Z,3.53
2023-04-15T11:05:57.533Z,2.47
2023-04-15T11:09:58.831Z,2.87
2023-04-15T11:14:01.987Z,3.00
2023-04-15T11:18:27.742Z,2.80
2023-04-15T11:22:29.120Z,2.93
2023-04-15T11:26:30.296Z,3.37
2023-04-15T11:30:33.586Z,3.20
2023-04-15T11:34:37.528Z,3.63
2023-04-15T11:38:44.376Z,3.43
2023-04-15T11:42:49.494Z,3.20
2023-04-15T11:46:49.772Z,3.57
2023-04-15T11:50:55.833Z,2.90
2023-04-15T11:55:03.556Z,3.20
2023-04-15T11:59:04.700Z,4.10
2023-04-15T12:03:41.824Z,3.83
2023-04-15T12:08:00.071Z,3.97
2023-04-15T12:12:03.224Z,4.97
2023-04-15T12:16:04.653Z,4.27
2023-04-15T12:20:07.199Z,5.33
2023-04-15T12:24:10.719Z,5.70
2023-04-15T12:28:12.294Z,5.50
2023-04-15T12:32:15.812Z,4.90
2023-04-15T12:36:16.954Z,4.27
2023-04-15T12:40:20.484Z,4.17
2023-04-15T12:44:23.341Z,4.27
2023-04-15T12:48:24.787Z,4.07
2023-04-15T12:52:26.053Z,4.77
2023-04-15T12:56:27.212Z,4.77
2023-04-15T13:00:29.399Z,5.67
2023-04-15T13:04:31.691Z,5.50
2023-04-15T13:08:33.629Z,4.10
2023-04-15T13:12:36.048Z,5.00
2023-04-15T13:16:37.127Z,8.80
2023-04-15T13:20:38.417Z,4.60
2023-04-15T13:24:40.201Z,4.20
2023-04-15T13:28:41.429Z,2.90
2023-04-15T13:32:42.584Z,2.40
2023-04-15T13:36:43.788Z,2.00
2023-04-15T13:40:45.236Z,2.20
2023-04-15T13:44:46.437Z,3.60
2023-04-15T13:48:47.653Z,5.43
2023-04-15T13:52:48.830Z,4.00
2023-04-15T13:56:49.972Z,2.80
2023-04-15T14:00:51.185Z,2.50
2023-04-15T14:04:52.516Z,2.00
2023-04-15T14:08:54.491Z,1.50
2023-04-15T14:12:56.524Z,1.77
2023-04-15T14:16:58.031Z,1.50
2023-04-15T14:20:59.242Z,2.40
2023-04-15T14:25:01.907Z,2.17
2023-04-15T14:29:03.559Z,3.67
2023-04-15T14:33:05.476Z,2.00
2023-04-15T14:37:06.854Z,1.60
2023-04-15T14:41:09.218Z,1.67
2023-04-15T14:45:10.681Z,1.70
2023-04-15T14:49:11.878Z,1.63
2023-04-15T14:53:13.119Z,1.57
2023-04-15T14:57:14.668Z,2.10
2023-04-15T15:01:15.845Z,1.80
2023-04-15T15:05:17.091Z,1.77
2023-04-15T15:09:19.134Z,1.80
2023-04-15T15:13:20.293Z,1.90
2023-04-15T15:17:21.658Z,2.50
2023-04-15T15:21:23.117Z,2.10
2023-04-15T15:25:24.249Z,1.83
2023-04-15T15:29:25.414Z,1.80
2023-04-15T15:33:27.658Z,1.73
2023-04-15T15:37:30.627Z,2.17
2023-04-15T15:41:32.780Z,2.33
2023-04-15T15:45:35.049Z,2.00
2023-04-15T15:49:36.213Z,2.10
2023-04-15T15:53:39.838Z,1.83
2023-04-15T15:57:41.078Z,3.83
2023-04-15T16:01:42.895Z,3.00
2023-04-15T16:05:44.129Z,2.67
2023-04-15T16:09:45.286Z,2.27
2023-04-15T16:13:46.384Z,6.23
2023-04-15T16:17:47.581Z,6.70
2023-04-15T16:21:48.881Z,1.90
2023-04-15T16:25:50.913Z,1.40
2023-04-15T16:29:52.299Z,2.03
2023-04-15T16:33:53.483Z,2.20
2023-04-15T16:37:54.775Z,1.67
2023-04-15T16:41:56.934Z,1.47
2023-04-15T16:45:58.151Z,1.40
2023-04-15T16:49:59.703Z,1.50
2023-04-15T16:54:00.836Z,1.70
2023-04-15T16:58:03.930Z,1.40
2023-04-15T17:02:05.041Z,2.00
2023-04-15T17:06:06.238Z,1.70
2023-04-15T17:10:09.408Z,1.70
2023-04-15T17:14:10.790Z,1.93
2023-04-15T17:18:12.082Z,1.90
2023-04-15T17:22:13.305Z,1.57
2023-04-15T17:26:14.522Z,1.57
2023-04-15T17:30:16.111Z,2.10
2023-04-15T17:34:18.666Z,1.87
2023-04-15T17:38:19.855Z,2.10
2023-04-15T17:42:22.526Z,2.20
2023-04-15T17:46:24.903Z,2.20
2023-04-15T17:50:26.930Z,2.83
2023-04-15T17:54:28.946Z,2.83
2023-04-15T17:58:30.761Z,3.40
2023-04-15T18:02:33.894Z,3.30
2023-04-15T18:06:36.148Z,2.90
2023-04-15T18:10:38.570Z,2.50
2023-04-15T18:14:40.339Z,3.03
2023-04-15T18:18:41.491Z,2.60
2023-04-15T18:22:42.956Z,2.40
2023-04-15T18:26:44.475Z,2.50
2023-04-15T18:30:46.454Z,2.80
2023-04-15T18:34:48.381Z,3.00
2023-04-15T18:38:49.951Z,2.50
2023-04-15T18:42:52.004Z,2.80
2023-04-15T18:46:53.883Z,2.47
2023-04-15T18:50:57.539Z,2.57
2023-04-15T18:54:58.706Z,2.87
2023-04-15T18:59:26.075Z,2.83
2023-04-15T19:03:05.767Z,2.70
2023-04-15T19:07:09.280Z,2.93
2023-04-15T19:11:10.939Z,2.63
2023-04-15T19:15:12.562Z,3.00
2023-04-15T19:19:14.987Z,2.97
2023-04-15T19:23:16.283Z,2.80
2023-04-15T19:27:17.831Z,3.03
2023-04-15T19:31:23.251Z,3.00
2023-04-15T19:35:25.394Z,2.77
2023-04-15T19:39:29.796Z,2.70
2023-04-15T19:43:32.272Z,2.73
2023-04-15T19:47:34.769Z,2.97
2023-04-15T19:51:36.081Z,3.03
2023-04-15T19:55:38.633Z,2.87
2023-04-15T19:59:40.252Z,2.90
2023-04-15T20:03:42.148Z,3.10
2023-04-15T20:07:46.598Z,2.57
2023-04-15T20:12:46.637Z,2.47
2023-04-15T20:15:51.966Z,2.73
2023-04-15T20:19:53.437Z,2.90
2023-04-15T20:23:55.097Z,4.03
2023-04-15T20:28:00.392Z,4.17
2023-04-15T20:32:02.074Z,3.93
2023-04-15T20:36:03.712Z,4.33
2023-04-15T20:40:06.849Z,3.80
2023-04-15T20:44:08.310Z,4.03
2023-04-15T20:48:10.640Z,3.60
2023-04-15T20:52:12.907Z,3.27
2023-04-15T20:56:14.894Z,3.93
2023-04-15T21:00:16.683Z,4.40
2023-04-15T21:04:18.740Z,3.57
2023-04-15T21:08:22.786Z,4.07
2023-04-15T21:12:24.842Z,5.33
2023-04-15T21:16:26.820Z,5.43
2023-04-15T21:20:28.419Z,5.90
2023-04-15T21:24:30.685Z,6.13
2023-04-15T21:28:32.642Z,7.10
2023-04-15T21:32:34.329Z,7.07
2023-04-15T21:36:37.369Z,8.30
2023-04-15T21:40:40.263Z,9.60
2023-04-15T21:44:42.371Z,8.10
2023-04-15T21:48:45.451Z,8.23
2023-04-15T21:52:46.593Z,7.30
2023-04-15T21:56:49.841Z,7.03
2023-04-15T22:00:55.035Z,6.47
2023-04-15T22:04:56.748Z,5.90
2023-04-15T22:08:58.478Z,5.63
2023-04-15T22:13:02.249Z,5.10
2023-04-15T22:17:03.715Z,5.00
2023-04-15T22:21:05.552Z,5.23
2023-04-15T22:25:08.225Z,4.97
2023-04-15T22:29:10.529Z,4.70
2023-04-15T22:33:12.010Z,5.00
2023-04-15T22:37:13.422Z,4.97
2023-04-15T22:41:15.036Z,5.90
2023-04-15T22:45:16.514Z,5.30
2023-04-15T22:49:18.470Z,4.57
2023-04-15T22:53:20.514Z,5.57
2023-04-15T22:57:22.077Z,5.50
2023-04-15T23:01:23.696Z,4.80
2023-04-15T23:05:25.132Z,6.13
2023-04-15T23:09:26.881Z,5.47
2023-04-15T23:13:28.741Z,5.40
2023-04-15T23:17:30.613Z,6.60
2023-04-15T23:21:32.268Z,6.97
2023-04-15T23:25:33.416Z,4.93
2023-04-15T23:29:36.088Z,5.67
2023-04-15T23:33:38.728Z,5.77
2023-04-15T23:37:40.690Z,6.47
2023-04-15T23:41:42.258Z,6.33
2023-04-15T23:45:43.803Z,6.60
2023-04-15T23:49:45.729Z,6.80
2023-04-15T23:53:48.419Z,6.70
2023-04-15T23:57:49.861Z,7.20
